Bordersville, Texas
Current Conditions -  °F | °C
As of 12:13 PM on Monday 22 Dec 2014 (Local Time) from KIAH Reporting Station
Broken Clouds Broken Clouds  
Wind Chill: 70°   Ceiling: 2500
Heat Index: 70°   Visibility: 10mi
Dew Point: 59°   Wind: 13mph
Humidity: 68%   Direction: 230°SW
Pressure: 29.7"   Gusts: 23mph
Location:  30.0245°N, 95.2914°W
Report Text: KIAH 221813Z 23011G20KT 10SM BKN025 BKN250 21/15 A2970 RMK AO2
Loading
Personal Weather Stations






























Interactive Weather Map New forecast layout! Learn more

10-Day Weather Forecast

Advertisements
Track Severe Weather on mobile